createdAt,value
2022-12-01T00:00:01.556Z,81.11
2022-12-01T00:04:56.339Z,80.83
2022-12-01T00:10:06.609Z,80.43
2022-12-01T00:15:00.805Z,80.78
2022-12-01T00:19:52.345Z,80.67
2022-12-01T00:24:43.919Z,80.20
2022-12-01T00:29:35.493Z,80.64
2022-12-01T00:34:28.060Z,80.75
2022-12-01T00:39:20.107Z,79.99
2022-12-01T00:44:11.637Z,80.14
2022-12-01T00:49:04.174Z,80.58
2022-12-01T00:53:55.737Z,80.58
2022-12-01T00:58:47.272Z,80.34
2022-12-01T01:03:38.850Z,80.00
2022-12-01T01:08:30.394Z,79.76
2022-12-01T01:13:21.935Z,80.48
2022-12-01T01:18:13.534Z,80.59
2022-12-01T01:23:05.242Z,79.87
2022-12-01T01:27:57.069Z,79.57
2022-12-01T01:32:48.722Z,79.47
2022-12-01T01:37:40.252Z,80.20
2022-12-01T01:42:31.795Z,80.37
2022-12-01T01:47:40.655Z,80.21
2022-12-01T01:53:01.347Z,80.46
2022-12-01T01:57:53.027Z,80.31
2022-12-01T02:02:47.637Z,80.97
2022-12-01T02:07:41.191Z,80.73
2022-12-01T02:12:35.661Z,80.45
2022-12-01T02:17:30.136Z,81.09
2022-12-01T02:22:42.897Z,81.10
2022-12-01T02:27:57.803Z,80.54
2022-12-01T02:33:09.548Z,80.71
2022-12-01T02:38:12.024Z,80.83
2022-12-01T02:43:19.826Z,81.30
2022-12-01T02:48:18.757Z,81.85
2022-12-01T02:53:13.504Z,81.83
2022-12-01T02:58:14.004Z,81.11
2022-12-01T03:03:15.034Z,81.24
2022-12-01T03:08:19.690Z,81.36
2022-12-01T03:13:26.420Z,81.34
2022-12-01T03:18:32.013Z,81.33
2022-12-01T03:23:27.726Z,80.72
2022-12-01T03:28:23.494Z,81.19
2022-12-01T03:33:27.118Z,81.79
2022-12-01T03:38:23.377Z,81.84
2022-12-01T03:43:21.304Z,81.15
2022-12-01T03:48:13.175Z,82.12
2022-12-01T03:53:11.903Z,82.50
2022-12-01T03:58:07.337Z,82.13
2022-12-01T04:03:03.316Z,82.71
2022-12-01T04:07:55.383Z,82.96
2022-12-01T04:12:46.951Z,83.08
2022-12-01T04:17:46.210Z,83.04
2022-12-01T04:22:37.832Z,83.21
2022-12-01T04:27:29.384Z,83.58
2022-12-01T04:32:21.013Z,83.04
2022-12-01T04:37:12.891Z,83.52
2022-12-01T04:42:04.855Z,83.25
2022-12-01T04:46:56.494Z,83.02
2022-12-01T04:51:48.898Z,82.97
2022-12-01T04:56:40.993Z,83.52
2022-12-01T05:01:32.760Z,82.78
2022-12-01T05:06:27.263Z,83.16
2022-12-01T05:11:19.326Z,82.57
2022-12-01T05:16:14.445Z,82.51
2022-12-01T05:21:08.012Z,82.60
2022-12-01T05:25:59.926Z,82.48
2022-12-01T05:30:51.524Z,82.60
2022-12-01T05:35:43.480Z,82.29
2022-12-01T05:40:36.017Z,82.40
2022-12-01T05:45:28.020Z,82.76
2022-12-01T05:50:19.560Z,82.20
2022-12-01T05:55:11.112Z,82.43
2022-12-01T06:00:05.281Z,81.67
2022-12-01T06:05:02.876Z,81.61
2022-12-01T06:09:54.444Z,80.90
2022-12-01T06:14:46.265Z,80.96
2022-12-01T06:19:38.338Z,80.72
2022-12-01T06:24:29.914Z,80.88
2022-12-01T06:29:21.574Z,80.37
2022-12-01T06:34:13.442Z,81.07
2022-12-01T06:39:10.090Z,81.04
2022-12-01T06:44:01.953Z,80.18
2022-12-01T06:48:53.566Z,80.24
2022-12-01T06:53:45.089Z,79.94
2022-12-01T06:58:36.654Z,80.41
2022-12-01T07:03:28.561Z,80.67
2022-12-01T07:08:20.082Z,80.67
2022-12-01T07:13:11.598Z,80.86
2022-12-01T07:18:03.252Z,80.25
2022-12-01T07:22:54.786Z,79.75
2022-12-01T07:27:46.446Z,79.75
2022-12-01T07:32:38.183Z,80.28
2022-12-01T07:37:29.768Z,79.38
2022-12-01T07:42:21.326Z,79.74
2022-12-01T07:47:12.820Z,80.04
2022-12-01T07:52:04.589Z,79.69
2022-12-01T07:56:56.204Z,79.16
2022-12-01T08:01:47.833Z,79.01
2022-12-01T08:06:39.402Z,79.39
2022-12-01T08:11:30.951Z,79.32
2022-12-01T08:16:24.233Z,79.16
2022-12-01T08:21:18.591Z,78.92
2022-12-01T08:26:18.585Z,79.52
2022-12-01T08:31:14.515Z,79.38
2022-12-01T08:36:07.209Z,79.30
2022-12-01T08:41:07.253Z,79.99
2022-12-01T08:46:02.434Z,78.67
2022-12-01T08:51:01.628Z,78.53
2022-12-01T08:55:53.145Z,77.94
2022-12-01T09:00:45.290Z,78.25
2022-12-01T09:05:36.872Z,78.25
2022-12-01T09:10:28.437Z,78.55
2022-12-01T09:15:19.942Z,78.79
2022-12-01T09:20:12.053Z,78.84
2022-12-01T09:25:04.014Z,78.84
2022-12-01T09:29:55.650Z,79.21
2022-12-01T09:39:39.294Z,77.79
2022-12-01T09:44:45.349Z,77.19
2022-12-01T09:50:15.957Z,77.82
2022-12-01T09:55:19.618Z,77.14
2022-12-01T10:00:15.862Z,75.99
2022-12-01T10:05:14.865Z,75.77
2022-12-01T10:10:18.174Z,75.08
2022-12-01T10:15:12.739Z,74.35
2022-12-01T10:20:25.440Z,74.49
2022-12-01T10:25:35.806Z,74.17
2022-12-01T10:30:27.717Z,75.08
2022-12-01T10:35:23.298Z,74.94
2022-12-01T10:40:16.371Z,74.16
2022-12-01T10:45:16.960Z,74.08
2022-12-01T10:50:09.348Z,74.45
2022-12-01T10:55:02.560Z,74.36
2022-12-01T11:00:50.878Z,74.10
2022-12-01T11:05:38.932Z,71.90
2022-12-01T11:10:32.792Z,71.86
2022-12-01T11:15:27.554Z,71.36
2022-12-01T11:20:38.820Z,71.29
2022-12-01T11:25:30.518Z,70.14
2022-12-01T11:30:27.537Z,71.19
2022-12-01T11:35:22.578Z,71.92
2022-12-01T11:40:38.406Z,71.50
2022-12-01T11:45:33.492Z,71.78
2022-12-01T11:50:27.881Z,72.17
2022-12-01T11:55:25.620Z,70.55
2022-12-01T12:00:29.714Z,69.99
2022-12-01T12:05:38.364Z,68.51
2022-12-01T12:10:56.037Z,66.08
2022-12-01T12:15:56.269Z,66.07
2022-12-01T12:21:12.476Z,65.13
2022-12-01T12:26:14.489Z,64.21
2022-12-01T12:31:49.218Z,63.43
2022-12-01T12:37:14.108Z,64.10
2022-12-01T12:42:34.809Z,64.02
2022-12-01T12:48:15.620Z,65.15
2022-12-01T12:53:22.856Z,65.36
2022-12-01T12:58:29.155Z,65.13
2022-12-01T13:03:23.469Z,64.69
2022-12-01T13:08:23.313Z,65.21
2022-12-01T13:13:25.860Z,66.32
2022-12-01T13:18:32.481Z,66.29
2022-12-01T13:23:26.041Z,66.54
2022-12-01T13:28:22.652Z,65.46
2022-12-01T13:33:16.604Z,63.27
2022-12-01T13:38:30.210Z,63.92
2022-12-01T13:43:23.004Z,64.53
2022-12-01T13:48:46.654Z,64.26
2022-12-01T13:53:39.040Z,64.94
2022-12-01T13:58:33.531Z,65.45
2022-12-01T14:03:37.237Z,64.94
2022-12-01T14:08:31.362Z,64.55
2022-12-01T14:13:24.179Z,64.68
2022-12-01T14:18:18.451Z,63.22
2022-12-01T14:23:17.265Z,63.31
2022-12-01T14:28:16.977Z,63.94
2022-12-01T14:33:39.483Z,64.76
2022-12-01T14:38:32.649Z,64.91
2022-12-01T14:43:45.580Z,64.40
2022-12-01T14:48:45.391Z,64.28
2022-12-01T14:53:44.396Z,65.19
2022-12-01T14:58:35.999Z,65.92
2022-12-01T15:03:33.069Z,66.21
2022-12-01T15:09:04.194Z,66.29
2022-12-01T15:13:54.535Z,66.26
2022-12-01T15:18:46.296Z,66.89
2022-12-01T15:23:52.844Z,67.42
2022-12-01T15:28:44.465Z,67.29
2022-12-01T15:33:38.971Z,67.19
2022-12-01T15:38:34.112Z,64.01
2022-12-01T15:43:35.101Z,64.94
2022-12-01T15:48:36.954Z,64.42
2022-12-01T15:53:33.418Z,64.29
2022-12-01T15:58:30.227Z,63.40
2022-12-01T16:03:21.944Z,63.93
2022-12-01T16:08:15.205Z,64.37
2022-12-01T16:13:41.745Z,64.37
2022-12-01T16:18:34.095Z,64.96
2022-12-01T16:23:26.357Z,64.96
2022-12-01T16:28:35.506Z,65.33
2022-12-01T16:33:29.028Z,65.39
2022-12-01T16:38:22.565Z,65.44
2022-12-01T16:43:15.841Z,65.60
2022-12-01T16:48:09.441Z,66.27
2022-12-01T16:53:01.266Z,65.74
2022-12-01T16:57:52.849Z,65.46
2022-12-01T17:02:44.503Z,65.57
2022-12-01T17:07:36.117Z,66.52
2022-12-01T17:12:27.727Z,67.01
2022-12-01T17:17:19.412Z,67.07
2022-12-01T17:22:10.977Z,67.85
2022-12-01T17:27:02.539Z,68.49
2022-12-01T17:31:54.276Z,68.09
2022-12-01T17:36:45.797Z,67.92
2022-12-01T17:41:37.331Z,68.27
2022-12-01T17:46:30.126Z,68.33
2022-12-01T17:51:22.008Z,68.57
2022-12-01T17:56:15.562Z,68.84
2022-12-01T18:01:15.039Z,68.82
2022-12-01T18:06:06.903Z,68.10
2022-12-01T18:11:03.212Z,67.55
2022-12-01T18:15:54.971Z,67.94
2022-12-01T18:20:46.648Z,68.16
2022-12-01T18:25:39.991Z,69.36
2022-12-01T18:30:33.802Z,69.96
2022-12-01T18:35:31.607Z,70.67
2022-12-01T18:40:24.066Z,70.22
2022-12-01T18:45:20.873Z,71.07
2022-12-01T18:50:12.925Z,71.21
2022-12-01T18:55:04.774Z,69.69
2022-12-01T18:59:56.493Z,69.72
2022-12-01T19:04:50.078Z,69.80
2022-12-01T19:09:42.424Z,69.09
2022-12-01T19:14:35.203Z,68.01
2022-12-01T19:19:26.829Z,68.53
2022-12-01T19:24:18.482Z,69.13
2022-12-01T19:29:10.193Z,68.46
2022-12-01T19:34:03.840Z,68.95
2022-12-01T19:39:00.193Z,69.68
2022-12-01T19:43:53.526Z,69.85
2022-12-01T19:48:46.052Z,68.66
2022-12-01T19:53:37.559Z,69.23
2022-12-01T19:58:29.415Z,68.50
2022-12-01T20:03:20.998Z,68.00
2022-12-01T20:08:13.834Z,68.43
2022-12-01T20:13:05.443Z,67.47
2022-12-01T20:17:59.313Z,67.77
2022-12-01T20:22:50.909Z,67.91
2022-12-01T20:27:42.505Z,68.38
2022-12-01T20:32:34.222Z,67.82
2022-12-01T20:37:25.837Z,68.70
2022-12-01T20:42:19.334Z,68.47
2022-12-01T20:47:10.892Z,68.38
2022-12-01T20:52:02.545Z,68.35
2022-12-01T20:56:54.221Z,68.05
2022-12-01T21:01:45.794Z,68.13
2022-12-01T21:06:37.353Z,67.86
2022-12-01T21:11:52.011Z,69.13
2022-12-01T21:16:48.235Z,69.36
2022-12-01T21:21:41.321Z,69.34
2022-12-01T21:26:33.128Z,68.60
2022-12-01T21:31:26.238Z,68.55
2022-12-01T21:36:22.515Z,69.53
2022-12-01T21:41:28.653Z,68.85
2022-12-01T21:46:20.264Z,69.35
2022-12-01T21:51:20.702Z,68.73
2022-12-01T21:56:19.867Z,68.60
2022-12-01T22:01:37.861Z,68.98
2022-12-01T22:06:38.832Z,69.31
2022-12-01T22:11:31.081Z,68.75
2022-12-01T22:16:33.872Z,69.28
2022-12-01T22:21:31.229Z,69.25
2022-12-01T22:26:22.827Z,68.47
2022-12-01T22:31:17.667Z,68.97
2022-12-01T22:36:22.855Z,69.38
2022-12-01T22:41:16.711Z,69.77
2022-12-01T22:46:35.848Z,68.97
2022-12-01T22:51:38.405Z,69.69
2022-12-01T22:57:02.507Z,69.35
2022-12-01T23:01:56.404Z,70.52
2022-12-01T23:06:55.529Z,69.95
2022-12-01T23:11:55.039Z,69.97
2022-12-01T23:16:46.584Z,69.74
2022-12-01T23:21:38.353Z,69.47
2022-12-01T23:26:30.092Z,70.24
2022-12-01T23:31:21.743Z,70.31
2022-12-01T23:36:21.744Z,70.63
2022-12-01T23:41:30.817Z,70.04
2022-12-01T23:46:24.913Z,69.76
2022-12-01T23:51:23.053Z,70.00
2022-12-01T23:56:20.156Z,70.33
